createdAt,value
2018-07-25T00:00:49.665Z,0.00
2018-07-25T00:01:49.636Z,0.00
2018-07-25T00:02:49.614Z,0.00
2018-07-25T00:03:49.597Z,0.00
2018-07-25T00:04:49.603Z,0.00
2018-07-25T00:05:49.659Z,0.00
2018-07-25T00:06:49.573Z,0.00
2018-07-25T00:07:49.559Z,0.00
2018-07-25T00:08:49.586Z,0.00
2018-07-25T00:09:49.535Z,0.00
2018-07-25T00:10:49.525Z,0.00
2018-07-25T00:11:49.544Z,0.00
2018-07-25T00:12:49.505Z,0.00
2018-07-25T00:13:49.491Z,0.00
2018-07-25T00:14:49.481Z,0.00
2018-07-25T00:15:49.469Z,0.00
2018-07-25T00:16:49.570Z,0.00
2018-07-25T00:17:49.448Z,0.00
2018-07-25T00:18:49.460Z,0.00
2018-07-25T00:19:49.434Z,0.00
2018-07-25T00:20:49.420Z,0.00
2018-07-25T00:21:49.405Z,0.00
2018-07-25T00:22:49.431Z,0.00
2018-07-25T00:23:49.383Z,0.00
2018-07-25T00:24:49.375Z,0.00
2018-07-25T00:25:49.363Z,0.00
2018-07-25T00:26:49.351Z,0.00
2018-07-25T00:27:49.481Z,0.00
2018-07-25T00:28:49.345Z,0.00
2018-07-25T00:29:49.322Z,0.00
2018-07-25T00:30:49.319Z,0.00
2018-07-25T00:31:49.298Z,0.00
2018-07-25T00:32:49.285Z,0.00
2018-07-25T00:33:49.310Z,0.00
2018-07-25T00:34:49.268Z,0.00
2018-07-25T00:35:49.254Z,0.00
2018-07-25T00:36:49.250Z,0.00
2018-07-25T00:37:49.234Z,0.00
2018-07-25T00:38:49.267Z,0.00
2018-07-25T00:39:49.211Z,0.00
2018-07-25T00:40:49.237Z,0.00
2018-07-25T00:41:49.184Z,0.00
2018-07-25T00:42:49.186Z,0.00
2018-07-25T00:43:49.163Z,0.00
2018-07-25T00:44:49.203Z,0.00
2018-07-25T00:45:49.159Z,0.00
2018-07-25T00:46:49.135Z,0.00
2018-07-25T00:47:49.121Z,0.00
2018-07-25T00:48:49.120Z,0.00
2018-07-25T00:49:49.133Z,0.00
2018-07-25T00:50:49.089Z,0.00
2018-07-25T00:51:49.084Z,0.00
2018-07-25T00:52:49.065Z,0.00
2018-07-25T00:53:49.056Z,0.00
2018-07-25T00:54:49.091Z,0.00
2018-07-25T00:55:49.069Z,0.00
2018-07-25T00:56:49.024Z,0.00
2018-07-25T00:57:49.014Z,0.00
2018-07-25T00:58:49.001Z,0.00
2018-07-25T00:59:49.106Z,0.00
2018-07-25T01:00:49.008Z,0.00
2018-07-25T01:01:48.965Z,0.00
2018-07-25T01:02:48.956Z,0.00
2018-07-25T01:03:48.942Z,0.00
2018-07-25T01:04:48.935Z,0.00
2018-07-25T01:05:48.957Z,0.00
2018-07-25T01:06:48.911Z,0.00
2018-07-25T01:07:48.905Z,0.00
2018-07-25T01:08:48.896Z,0.00
2018-07-25T01:09:48.877Z,0.00
2018-07-25T01:10:49.067Z,0.00
2018-07-25T01:11:48.872Z,0.00
2018-07-25T01:12:48.849Z,0.00
2018-07-25T01:13:48.834Z,0.00
2018-07-25T01:14:48.845Z,0.00
2018-07-25T01:15:48.810Z,0.00
2018-07-25T01:16:48.835Z,0.00
2018-07-25T01:17:48.802Z,0.00
2018-07-25T01:18:48.784Z,0.00
2018-07-25T01:19:48.771Z,0.00
2018-07-25T01:20:48.790Z,0.00
2018-07-25T01:21:48.787Z,0.00
2018-07-25T01:22:48.753Z,0.00
2018-07-25T01:23:48.723Z,0.00
2018-07-25T01:24:48.712Z,0.00
2018-07-25T01:25:48.705Z,0.00
2018-07-25T01:26:48.690Z,0.00
2018-07-25T01:27:48.717Z,0.00
2018-07-25T01:28:48.682Z,0.00
2018-07-25T01:29:48.658Z,0.00
2018-07-25T01:30:48.662Z,0.00
2018-07-25T01:31:48.636Z,0.00
2018-07-25T01:32:48.663Z,0.00
2018-07-25T01:33:48.615Z,0.00
2018-07-25T01:34:48.608Z,0.00
2018-07-25T01:35:48.593Z,0.00
2018-07-25T01:36:48.580Z,0.00
2018-07-25T01:37:48.603Z,0.00
2018-07-25T01:38:48.563Z,0.00
2018-07-25T01:39:48.553Z,0.00
2018-07-25T01:40:48.542Z,0.00
2018-07-25T01:41:48.537Z,0.00
2018-07-25T01:42:48.558Z,0.00
2018-07-25T01:43:48.505Z,0.00
2018-07-25T01:44:48.492Z,0.00
2018-07-25T01:45:48.492Z,0.00
2018-07-25T01:46:48.476Z,0.00
2018-07-25T01:47:48.461Z,0.00
2018-07-25T01:48:48.498Z,0.00
2018-07-25T01:49:48.440Z,0.00
2018-07-25T01:50:48.428Z,0.00
2018-07-25T01:51:48.424Z,0.00
2018-07-25T01:52:48.412Z,0.00
2018-07-25T01:53:48.581Z,0.00
2018-07-25T01:54:48.408Z,0.00
2018-07-25T01:55:48.374Z,0.00
2018-07-25T01:56:48.363Z,0.00
2018-07-25T01:57:48.364Z,0.00
2018-07-25T01:58:48.355Z,0.00
2018-07-25T01:59:48.382Z,0.00
2018-07-25T02:00:48.320Z,0.00
2018-07-25T02:01:48.306Z,0.00
2018-07-25T02:02:48.303Z,0.00
2018-07-25T02:03:48.308Z,0.00
2018-07-25T02:04:48.480Z,0.00
2018-07-25T02:05:48.266Z,0.00
2018-07-25T02:06:48.253Z,0.00
2018-07-25T02:07:48.275Z,0.00
2018-07-25T02:08:48.243Z,0.00
2018-07-25T02:09:48.232Z,0.00
2018-07-25T02:10:48.247Z,0.00
2018-07-25T02:11:48.202Z,0.00
2018-07-25T02:12:48.190Z,0.00
2018-07-25T02:13:48.183Z,0.00
2018-07-25T02:14:48.170Z,0.00
2018-07-25T02:15:48.675Z,0.00
2018-07-25T02:16:48.146Z,0.00
2018-07-25T02:17:48.139Z,0.00
2018-07-25T02:18:48.125Z,0.00
2018-07-25T02:19:48.114Z,0.00
2018-07-25T02:20:48.117Z,0.00
2018-07-25T02:21:48.126Z,0.00
2018-07-25T02:22:48.101Z,0.00
2018-07-25T02:23:48.077Z,0.00
2018-07-25T02:24:48.060Z,0.00
2018-07-25T02:25:48.050Z,0.00
2018-07-25T02:26:48.075Z,0.00
2018-07-25T02:27:48.033Z,0.00
2018-07-25T02:28:48.015Z,0.00
2018-07-25T02:29:48.004Z,0.00
2018-07-25T02:30:48.002Z,0.00
2018-07-25T02:31:48.169Z,0.00
2018-07-25T02:32:47.976Z,0.00
2018-07-25T02:33:47.964Z,0.00
2018-07-25T02:34:47.955Z,0.00
2018-07-25T02:35:47.950Z,0.00
2018-07-25T02:36:47.938Z,0.00
2018-07-25T02:37:47.953Z,0.00
2018-07-25T02:38:47.910Z,0.00
2018-07-25T02:39:47.898Z,0.00
2018-07-25T02:40:47.898Z,0.00
2018-07-25T02:41:47.875Z,0.00
2018-07-25T02:42:47.915Z,0.00
2018-07-25T02:43:47.968Z,0.00
2018-07-25T02:44:47.843Z,0.00
2018-07-25T02:45:47.831Z,0.00
2018-07-25T02:46:47.822Z,0.00
2018-07-25T02:47:47.812Z,0.00
2018-07-25T02:48:47.830Z,0.00
2018-07-25T02:49:47.804Z,0.00
2018-07-25T02:50:47.788Z,0.00
2018-07-25T02:51:47.765Z,0.00
2018-07-25T02:52:47.754Z,0.00
2018-07-25T02:53:47.955Z,0.00
2018-07-25T02:54:47.732Z,0.00
2018-07-25T02:55:47.722Z,0.00
2018-07-25T02:56:47.790Z,0.00
2018-07-25T02:57:47.701Z,0.00
2018-07-25T02:58:47.703Z,0.00
2018-07-25T02:59:47.712Z,0.00
2018-07-25T03:00:47.672Z,0.00
2018-07-25T03:01:47.657Z,0.00
2018-07-25T03:02:47.653Z,0.00
2018-07-25T03:03:47.637Z,0.00
2018-07-25T03:04:47.668Z,0.00
2018-07-25T03:05:47.617Z,4.00
2018-07-25T03:06:47.616Z,4.00
2018-07-25T03:07:47.590Z,0.00
2018-07-25T03:08:47.583Z,4.00
2018-07-25T03:09:47.647Z,4.00
2018-07-25T03:10:47.563Z,4.00
2018-07-25T03:11:47.546Z,4.00
2018-07-25T03:12:47.535Z,4.00
2018-07-25T03:13:47.528Z,8.00
2018-07-25T03:14:47.514Z,8.00
2018-07-25T03:15:47.544Z,8.00
2018-07-25T03:16:47.593Z,8.00
2018-07-25T03:17:47.503Z,12.00
2018-07-25T03:18:47.471Z,16.00
2018-07-25T03:19:47.459Z,16.00
2018-07-25T03:20:47.520Z,20.00
2018-07-25T03:21:47.441Z,24.00
2018-07-25T03:22:47.428Z,24.00
2018-07-25T03:23:47.424Z,32.00
2018-07-25T03:24:47.404Z,32.00
2018-07-25T03:25:47.402Z,40.00
2018-07-25T03:26:47.415Z,48.00
2018-07-25T03:27:47.380Z,52.00
2018-07-25T03:28:47.364Z,60.00
2018-07-25T03:29:47.372Z,72.00
2018-07-25T03:30:47.340Z,80.00
2018-07-25T03:31:47.670Z,88.00
2018-07-25T03:32:47.337Z,104.00
2018-07-25T03:33:47.313Z,112.00
2018-07-25T03:34:47.300Z,128.00
2018-07-25T03:35:47.286Z,140.00
2018-07-25T03:36:47.460Z,160.00
2018-07-25T03:37:47.279Z,176.00
2018-07-25T03:38:47.256Z,192.00
2018-07-25T03:39:47.261Z,212.00
2018-07-25T03:40:47.233Z,232.00
2018-07-25T03:41:47.223Z,252.00
2018-07-25T03:42:47.350Z,272.00
2018-07-25T03:43:47.208Z,296.00
2018-07-25T03:44:47.195Z,324.00
2018-07-25T03:45:47.190Z,344.00
2018-07-25T03:46:47.204Z,372.00
2018-07-25T03:47:47.157Z,400.00
2018-07-25T03:48:47.203Z,428.00
2018-07-25T03:49:47.143Z,460.00
2018-07-25T03:50:47.130Z,492.00
2018-07-25T03:51:47.115Z,520.00
2018-07-25T03:52:47.102Z,556.00
2018-07-25T03:53:47.126Z,588.00
2018-07-25T03:54:47.081Z,628.00
2018-07-25T03:55:47.083Z,660.00
2018-07-25T03:56:47.059Z,700.00
2018-07-25T03:57:47.051Z,736.00
2018-07-25T03:58:47.092Z,772.00
2018-07-25T03:59:47.025Z,816.00
2018-07-25T04:00:47.020Z,852.00
2018-07-25T04:01:47.027Z,896.00
2018-07-25T04:02:47.009Z,932.00
2018-07-25T04:03:47.033Z,976.00
2018-07-25T04:04:46.972Z,1020.00
2018-07-25T04:05:46.962Z,1064.00
2018-07-25T04:06:46.955Z,1108.00
2018-07-25T04:07:46.976Z,1152.00
2018-07-25T04:08:46.962Z,1196.00
2018-07-25T04:09:46.924Z,1240.00
2018-07-25T04:10:46.908Z,1284.00
2018-07-25T04:11:46.900Z,1328.00
2018-07-25T04:12:46.896Z,1372.00
2018-07-25T04:13:46.913Z,1420.00
2018-07-25T04:14:46.864Z,1468.00
2018-07-25T04:15:46.853Z,1520.00
2018-07-25T04:16:46.842Z,1568.00
2018-07-25T04:17:46.832Z,1616.00
2018-07-25T04:18:46.873Z,1660.00
2018-07-25T04:19:46.825Z,1704.00
2018-07-25T04:20:46.807Z,1748.00
2018-07-25T04:21:46.792Z,1796.00
2018-07-25T04:22:46.783Z,1844.00
2018-07-25T04:23:46.807Z,1896.00
2018-07-25T04:24:46.815Z,1940.00
2018-07-25T04:25:46.752Z,1984.00
2018-07-25T04:26:46.742Z,2036.00
2018-07-25T04:27:46.724Z,2080.00
2018-07-25T04:28:46.748Z,2128.00
2018-07-25T04:29:46.710Z,2172.00
2018-07-25T04:30:46.699Z,2224.00
2018-07-25T04:31:46.705Z,2264.00
2018-07-25T04:32:46.674Z,2312.00
2018-07-25T04:33:46.725Z,2356.00
2018-07-25T04:34:46.699Z,2400.00
2018-07-25T04:35:46.637Z,2448.00
2018-07-25T04:36:46.642Z,2492.00
2018-07-25T04:37:46.616Z,2536.00
2018-07-25T04:38:46.760Z,2584.00
2018-07-25T04:39:46.594Z,2628.00
2018-07-25T04:40:46.594Z,2676.00
2018-07-25T04:41:46.575Z,2716.00
2018-07-25T04:42:46.632Z,2760.00
2018-07-25T04:43:46.554Z,2800.00
2018-07-25T04:44:46.596Z,2848.00
2018-07-25T04:45:46.541Z,2892.00
2018-07-25T04:46:46.594Z,2936.00
2018-07-25T04:47:46.514Z,2984.00
2018-07-25T04:48:46.502Z,3032.00
2018-07-25T04:49:46.490Z,3076.00
2018-07-25T04:50:46.522Z,3124.00
2018-07-25T04:51:46.483Z,3172.00
2018-07-25T04:52:46.464Z,3216.00
2018-07-25T04:53:46.448Z,3264.00
2018-07-25T04:54:46.449Z,3308.00
2018-07-25T04:55:46.468Z,3360.00
2018-07-25T04:56:46.412Z,3400.00
2018-07-25T04:57:46.403Z,3440.00
2018-07-25T04:58:46.390Z,3484.00
2018-07-25T04:59:46.381Z,3524.00
2018-07-25T05:00:46.411Z,3572.00
2018-07-25T05:01:46.358Z,3616.00
2018-07-25T05:02:46.353Z,3672.00
2018-07-25T05:03:46.344Z,3716.00
2018-07-25T05:04:46.324Z,3772.00
2018-07-25T05:05:46.345Z,3824.00
2018-07-25T05:06:46.307Z,3876.00
2018-07-25T05:07:46.302Z,3928.00
2018-07-25T05:08:46.286Z,3980.00
2018-07-25T05:09:46.270Z,4032.00
2018-07-25T05:10:46.679Z,4084.00
2018-07-25T05:11:46.262Z,4128.00
2018-07-25T05:12:46.243Z,4172.00
2018-07-25T05:13:46.225Z,4224.00
2018-07-25T05:14:46.215Z,4276.00
2018-07-25T05:15:46.249Z,4328.00
2018-07-25T05:16:46.197Z,4380.00
2018-07-25T05:17:46.217Z,4428.00
2018-07-25T05:18:46.175Z,4476.00
2018-07-25T05:19:46.158Z,4528.00
2018-07-25T05:20:46.179Z,4568.00
2018-07-25T05:21:46.136Z,4616.00
2018-07-25T05:22:46.147Z,4660.00
2018-07-25T05:23:46.116Z,4704.00
2018-07-25T05:24:46.104Z,4752.00
2018-07-25T05:25:46.133Z,4796.00
2018-07-25T05:26:46.080Z,4844.00
2018-07-25T05:27:46.072Z,4888.00
2018-07-25T05:28:46.061Z,4924.00
2018-07-25T05:29:46.049Z,4972.00
2018-07-25T05:30:46.086Z,5012.00
2018-07-25T05:31:46.038Z,5056.00
2018-07-25T05:32:46.017Z,5096.00
2018-07-25T05:33:46.013Z,5144.00
2018-07-25T05:34:46.001Z,5196.00
2018-07-25T05:35:46.016Z,5252.00
2018-07-25T05:36:45.970Z,5304.00
2018-07-25T05:37:45.962Z,5360.00
2018-07-25T05:38:45.950Z,5412.00
2018-07-25T05:39:45.948Z,5456.00
2018-07-25T05:40:46.115Z,5496.00
2018-07-25T05:41:45.936Z,5548.00
2018-07-25T05:42:45.904Z,5600.00
2018-07-25T05:43:45.902Z,5644.00
2018-07-25T05:44:45.891Z,5680.00
2018-07-25T05:45:45.880Z,5724.00
2018-07-25T05:46:45.895Z,5768.00
2018-07-25T05:47:45.850Z,5816.00
2018-07-25T05:48:45.850Z,5860.00
2018-07-25T05:49:45.832Z,5916.00
2018-07-25T05:50:45.816Z,5972.00
2018-07-25T05:51:45.852Z,6032.00
2018-07-25T05:52:45.814Z,6092.00
2018-07-25T05:53:45.791Z,6148.00
2018-07-25T05:54:45.773Z,6204.00
2018-07-25T05:55:45.767Z,6252.00
2018-07-25T05:56:45.811Z,6300.00
2018-07-25T05:57:45.748Z,6364.00
2018-07-25T05:58:45.791Z,6428.00
2018-07-25T05:59:45.719Z,6500.00
2018-07-25T06:00:45.707Z,6564.00
2018-07-25T06:01:45.877Z,6636.00
2018-07-25T06:02:45.770Z,6688.00
2018-07-25T06:03:45.680Z,6740.00
2018-07-25T06:04:45.666Z,6768.00
2018-07-25T06:05:45.667Z,6796.00
2018-07-25T06:06:45.649Z,6828.00
2018-07-25T06:07:45.665Z,6860.00
2018-07-25T06:08:45.660Z,6900.00
2018-07-25T06:09:45.621Z,6944.00
2018-07-25T06:10:45.603Z,6984.00
2018-07-25T06:11:45.595Z,7032.00
2018-07-25T06:12:45.699Z,7088.00
2018-07-25T06:13:45.573Z,7152.00
2018-07-25T06:14:45.567Z,7220.00
2018-07-25T06:15:45.576Z,7284.00
2018-07-25T06:16:45.548Z,7340.00
2018-07-25T06:17:45.527Z,7404.00
2018-07-25T06:18:45.567Z,7472.00
2018-07-25T06:19:45.507Z,7528.00
2018-07-25T06:20:45.498Z,7596.00
2018-07-25T06:21:45.506Z,7668.00
2018-07-25T06:22:45.471Z,7728.00
2018-07-25T06:23:45.501Z,7784.00
2018-07-25T06:24:45.451Z,7828.00
2018-07-25T06:25:45.442Z,7864.00
2018-07-25T06:26:45.433Z,7912.00
2018-07-25T06:27:45.447Z,7972.00
2018-07-25T06:28:45.555Z,8016.00
2018-07-25T06:29:45.395Z,7372.00
2018-07-25T06:30:45.391Z,7412.00
2018-07-25T06:31:45.373Z,7464.00
2018-07-25T06:32:45.368Z,7528.00
2018-07-25T06:33:45.360Z,7580.00
2018-07-25T06:34:45.403Z,7640.00
2018-07-25T06:35:45.329Z,7692.00
2018-07-25T06:36:45.329Z,7744.00
2018-07-25T06:37:45.306Z,7800.00
2018-07-25T06:38:45.300Z,7848.00
2018-07-25T06:39:45.424Z,7896.00
2018-07-25T06:40:45.275Z,7940.00
2018-07-25T06:41:45.263Z,7992.00
2018-07-25T06:42:45.254Z,8048.00
2018-07-25T06:43:45.296Z,8104.00
2018-07-25T06:44:45.249Z,8152.00
2018-07-25T06:45:45.255Z,8180.00
2018-07-25T06:46:45.210Z,8208.00
2018-07-25T06:47:45.200Z,8236.00
2018-07-25T06:48:45.187Z,8272.00
2018-07-25T06:49:45.177Z,8308.00
2018-07-25T06:50:45.372Z,8356.00
2018-07-25T06:51:45.156Z,8408.00
2018-07-25T06:52:45.145Z,8460.00
2018-07-25T06:53:45.134Z,8512.00
2018-07-25T06:54:45.126Z,8564.00
2018-07-25T06:55:45.114Z,8624.00
2018-07-25T06:56:45.155Z,8668.00
2018-07-25T06:57:45.139Z,8732.00
2018-07-25T06:58:45.081Z,8784.00
2018-07-25T06:59:45.072Z,8836.00
2018-07-25T07:00:45.058Z,8884.00
2018-07-25T07:01:45.059Z,9620.00
2018-07-25T07:02:45.097Z,9660.00
2018-07-25T07:03:45.032Z,9712.00
2018-07-25T07:04:45.017Z,9760.00
2018-07-25T07:05:45.003Z,9796.00
2018-07-25T07:06:45.061Z,9844.00
2018-07-25T07:07:45.037Z,9876.00
2018-07-25T07:08:44.984Z,9924.00
2018-07-25T07:09:44.965Z,9968.00
2018-07-25T07:10:44.964Z,10004.00
2018-07-25T07:11:44.943Z,10048.00
2018-07-25T07:12:44.929Z,10092.00
2018-07-25T07:13:44.964Z,10128.00
2018-07-25T07:14:44.944Z,10184.00
2018-07-25T07:15:44.895Z,10224.00
2018-07-25T07:16:44.902Z,10260.00
2018-07-25T07:17:44.891Z,10292.00
2018-07-25T07:18:44.900Z,10308.00
2018-07-25T07:19:44.855Z,10352.00
2018-07-25T07:20:44.851Z,10384.00
2018-07-25T07:21:44.837Z,10428.00
2018-07-25T07:22:44.835Z,10464.00
2018-07-25T07:23:44.848Z,10504.00
2018-07-25T07:24:44.813Z,10544.00
2018-07-25T07:25:44.823Z,10572.00
2018-07-25T07:26:44.800Z,10592.00
2018-07-25T07:27:44.766Z,10608.00
2018-07-25T07:28:44.821Z,10612.00
2018-07-25T07:29:44.748Z,10584.00
2018-07-25T07:30:44.737Z,10540.00
2018-07-25T07:31:44.746Z,10520.00
2018-07-25T07:32:44.713Z,10496.00
2018-07-25T07:33:44.844Z,10472.00
2018-07-25T07:34:44.703Z,10464.00
2018-07-25T07:35:44.695Z,10456.00
2018-07-25T07:36:44.687Z,10440.00
2018-07-25T07:37:44.672Z,10424.00
2018-07-25T07:38:44.688Z,10396.00
2018-07-25T07:39:44.660Z,10412.00
2018-07-25T07:40:44.767Z,10380.00
2018-07-25T07:41:44.628Z,10368.00
2018-07-25T07:42:44.606Z,10380.00
2018-07-25T07:43:44.729Z,10392.00
2018-07-25T07:44:44.591Z,10408.00
2018-07-25T07:45:44.577Z,10412.00
2018-07-25T07:46:44.563Z,10428.00
2018-07-25T07:47:44.621Z,10448.00
2018-07-25T07:48:44.665Z,10468.00
2018-07-25T07:49:44.580Z,10492.00
2018-07-25T07:50:44.524Z,10512.00
2018-07-25T07:51:44.511Z,10540.00
2018-07-25T07:52:44.505Z,10572.00
2018-07-25T07:53:44.529Z,10624.00
2018-07-25T07:54:44.475Z,10696.00
2018-07-25T07:55:44.477Z,10792.00
2018-07-25T07:56:44.454Z,10912.00
2018-07-25T07:57:44.456Z,11036.00
2018-07-25T07:58:44.497Z,11208.00
2018-07-25T07:59:44.431Z,11432.00
2018-07-25T08:00:44.486Z,14204.00
2018-07-25T08:01:44.405Z,31904.00
2018-07-25T08:02:44.428Z,53376.00
2018-07-25T08:03:44.434Z,68704.00
2018-07-25T08:04:44.373Z,73248.00
2018-07-25T08:05:44.362Z,74528.00
2018-07-25T08:06:44.351Z,74976.00
2018-07-25T08:07:44.345Z,76032.00
2018-07-25T08:08:44.336Z,77632.00
2018-07-25T08:09:44.387Z,78016.00
2018-07-25T08:10:44.338Z,76928.00
2018-07-25T08:11:44.330Z,75712.00
2018-07-25T08:12:44.287Z,77184.00
2018-07-25T08:13:44.279Z,78016.00
2018-07-25T08:14:44.282Z,78336.00
2018-07-25T08:15:44.712Z,79456.00
2018-07-25T08:16:44.244Z,79840.00
2018-07-25T08:17:44.329Z,79424.00
2018-07-25T08:18:44.222Z,78592.00
2018-07-25T08:19:44.269Z,78176.00
2018-07-25T08:20:44.262Z,77408.00
2018-07-25T08:21:44.203Z,77536.00
2018-07-25T08:22:44.197Z,78752.00
2018-07-25T08:23:44.172Z,78976.00
2018-07-25T08:24:44.166Z,77600.00
2018-07-25T08:25:44.232Z,79552.00
2018-07-25T08:26:44.149Z,79488.00
2018-07-25T08:27:44.132Z,79808.00
2018-07-25T08:28:44.127Z,79168.00
2018-07-25T08:29:44.122Z,79456.00
2018-07-25T08:30:44.338Z,81504.00
2018-07-25T08:31:44.122Z,84000.00
2018-07-25T08:32:44.086Z,84256.00
2018-07-25T08:33:44.092Z,84224.00
2018-07-25T08:34:44.119Z,84096.00
2018-07-25T08:35:44.056Z,85728.00
2018-07-25T08:36:44.127Z,84160.00
2018-07-25T08:37:44.040Z,83040.00
2018-07-25T08:38:44.041Z,84160.00
2018-07-25T08:39:44.022Z,84992.00
2018-07-25T08:40:44.032Z,85376.00
2018-07-25T08:41:44.063Z,85632.00
2018-07-25T08:42:43.990Z,85504.00
2018-07-25T08:43:43.980Z,86176.00
2018-07-25T08:44:43.988Z,87072.00
2018-07-25T08:45:43.960Z,87488.00
2018-07-25T08:46:44.043Z,86816.00
2018-07-25T08:47:43.958Z,86560.00
2018-07-25T08:48:43.935Z,84576.00
2018-07-25T08:49:43.927Z,83968.00
2018-07-25T08:50:43.933Z,84000.00
2018-07-25T08:51:43.903Z,86048.00
2018-07-25T08:52:43.981Z,87968.00
2018-07-25T08:53:43.895Z,89504.00
2018-07-25T08:54:43.876Z,90240.00
2018-07-25T08:55:43.868Z,92416.00
2018-07-25T08:56:43.861Z,91200.00
2018-07-25T08:57:44.085Z,93088.00
2018-07-25T08:58:43.842Z,95840.00
2018-07-25T08:59:43.845Z,95904.00
2018-07-25T09:00:43.834Z,95360.00
2018-07-25T09:01:43.852Z,94560.00
2018-07-25T09:02:44.677Z,94336.00
2018-07-25T09:03:43.863Z,93344.00
2018-07-25T09:04:43.793Z,88256.00
2018-07-25T09:05:43.782Z,97280.00
2018-07-25T09:06:43.777Z,96416.00
2018-07-25T09:07:43.790Z,100608.00
2018-07-25T09:08:43.793Z,98976.00
2018-07-25T09:09:43.835Z,94144.00
2018-07-25T09:10:43.746Z,93568.00
2018-07-25T09:11:43.729Z,92384.00
2018-07-25T09:12:43.768Z,93536.00
2018-07-25T09:13:43.757Z,84160.00
2018-07-25T09:14:43.711Z,98944.00
2018-07-25T09:15:43.694Z,100096.00
2018-07-25T09:16:43.744Z,101088.00
2018-07-25T09:17:43.693Z,101248.00
2018-07-25T09:18:43.672Z,100672.00
2018-07-25T09:19:43.698Z,98496.00
2018-07-25T09:20:43.654Z,101056.00
2018-07-25T09:21:43.646Z,100832.00
2018-07-25T09:22:43.639Z,98080.00
2018-07-25T09:23:43.629Z,100864.00
2018-07-25T09:24:43.647Z,98432.00
2018-07-25T09:25:43.643Z,97696.00
2018-07-25T09:26:43.612Z,102080.00
2018-07-25T09:27:43.618Z,107712.00
2018-07-25T09:28:43.582Z,106848.00
2018-07-25T09:29:43.577Z,109056.00
2018-07-25T09:30:43.600Z,109344.00
2018-07-25T09:31:43.563Z,105824.00
2018-07-25T09:32:43.560Z,104832.00
2018-07-25T09:33:43.597Z,103328.00
2018-07-25T09:34:43.536Z,103328.00
2018-07-25T09:35:43.573Z,107488.00
2018-07-25T09:36:43.523Z,108512.00
2018-07-25T09:37:43.516Z,110272.00
2018-07-25T09:38:43.504Z,108064.00
2018-07-25T09:39:43.499Z,106880.00
2018-07-25T09:40:43.529Z,105952.00
2018-07-25T09:41:43.493Z,104192.00
2018-07-25T09:42:43.477Z,102176.00
2018-07-25T09:43:43.467Z,104544.00
2018-07-25T09:44:43.461Z,106688.00
2018-07-25T09:45:43.484Z,107808.00
2018-07-25T09:46:43.510Z,110560.00
2018-07-25T09:47:43.457Z,110368.00
2018-07-25T09:48:43.426Z,107200.00
2018-07-25T09:49:43.434Z,106368.00
2018-07-25T09:50:43.442Z,105536.00
2018-07-25T09:51:43.402Z,103904.00
2018-07-25T09:52:43.412Z,101280.00
2018-07-25T09:53:43.401Z,103424.00
2018-07-25T09:54:43.414Z,103904.00
2018-07-25T09:55:43.432Z,105568.00
2018-07-25T09:56:43.365Z,110848.00
2018-07-25T09:57:43.358Z,113152.00
2018-07-25T09:58:43.362Z,112960.00
2018-07-25T09:59:43.347Z,109312.00
2018-07-25T10:00:43.708Z,108032.00
2018-07-25T10:01:43.338Z,101152.00
2018-07-25T10:02:43.347Z,100864.00
2018-07-25T10:03:43.313Z,105984.00
2018-07-25T10:04:43.309Z,106560.00
2018-07-25T10:05:43.316Z,103328.00
2018-07-25T10:06:43.427Z,103328.00
2018-07-25T10:07:43.392Z,104256.00
2018-07-25T10:08:43.310Z,111744.00
2018-07-25T10:09:43.274Z,107552.00
2018-07-25T10:10:43.336Z,110720.00
2018-07-25T10:11:43.272Z,114848.00
2018-07-25T10:12:43.283Z,103904.00
2018-07-25T10:13:43.264Z,106624.00
2018-07-25T10:14:43.233Z,76800.00
2018-07-25T10:15:43.236Z,100768.00
2018-07-25T10:16:43.250Z,102400.00
2018-07-25T10:17:43.420Z,102976.00
2018-07-25T10:18:43.208Z,99136.00
2018-07-25T10:19:43.200Z,103968.00
2018-07-25T10:20:43.265Z,108768.00
2018-07-25T10:21:44.657Z,110400.00
2018-07-25T10:22:43.357Z,108128.00
2018-07-25T10:23:43.201Z,109568.00
2018-07-25T10:24:43.366Z,106976.00
2018-07-25T10:25:43.160Z,104896.00
2018-07-25T10:26:43.158Z,106112.00
2018-07-25T10:27:43.160Z,102368.00
2018-07-25T10:28:43.197Z,105472.00
2018-07-25T10:29:43.133Z,106880.00
2018-07-25T10:30:43.115Z,101504.00
2018-07-25T10:31:43.140Z,106816.00
2018-07-25T10:32:43.104Z,113376.00
2018-07-25T10:33:43.160Z,106496.00
2018-07-25T10:34:43.105Z,100864.00
2018-07-25T10:35:43.082Z,45824.00
2018-07-25T10:36:43.084Z,107040.00
2018-07-25T10:37:43.107Z,114432.00
2018-07-25T10:38:43.142Z,105600.00
2018-07-25T10:39:43.055Z,119232.00
2018-07-25T10:40:43.056Z,108256.00
2018-07-25T10:41:43.035Z,112576.00
2018-07-25T10:42:43.038Z,109504.00
2018-07-25T10:43:43.091Z,112704.00
2018-07-25T10:44:43.032Z,107552.00
2018-07-25T10:45:43.105Z,111616.00
2018-07-25T10:46:43.068Z,109376.00
2018-07-25T10:47:42.999Z,114336.00
2018-07-25T10:48:43.372Z,106688.00
2018-07-25T10:49:42.978Z,106912.00
2018-07-25T10:50:42.977Z,105312.00
2018-07-25T10:51:43.035Z,109056.00
2018-07-25T10:52:42.977Z,110688.00
2018-07-25T10:53:42.984Z,104800.00
2018-07-25T10:54:42.954Z,108512.00
2018-07-25T10:55:43.087Z,105696.00
2018-07-25T10:56:42.931Z,112224.00
2018-07-25T10:57:42.920Z,110432.00
2018-07-25T10:58:42.949Z,112224.00
2018-07-25T10:59:42.923Z,112832.00
2018-07-25T11:00:42.925Z,113920.00
2018-07-25T11:01:42.913Z,114240.00
2018-07-25T11:02:42.908Z,111936.00
2018-07-25T11:03:42.950Z,109216.00
2018-07-25T11:04:42.881Z,106080.00
2018-07-25T11:05:42.873Z,105728.00
2018-07-25T11:06:42.873Z,108384.00
2018-07-25T11:07:42.854Z,111360.00
2018-07-25T11:08:42.886Z,113952.00
2018-07-25T11:09:42.908Z,112064.00
2018-07-25T11:10:42.841Z,114272.00
2018-07-25T11:11:42.823Z,114016.00
2018-07-25T11:12:42.824Z,16420.00
2018-07-25T11:13:42.847Z,15060.00
2018-07-25T11:14:42.808Z,12872.00
2018-07-25T11:15:42.803Z,12488.00
2018-07-25T11:16:42.791Z,13584.00
2018-07-25T11:17:42.782Z,116832.00
2018-07-25T11:18:42.814Z,120832.00
2018-07-25T11:19:42.760Z,133184.00
2018-07-25T11:20:42.760Z,139040.00
2018-07-25T11:21:42.749Z,107680.00
2018-07-25T11:22:42.745Z,107168.00
2018-07-25T11:23:42.732Z,78464.00
2018-07-25T11:24:42.765Z,85696.00
2018-07-25T11:25:42.796Z,108128.00
2018-07-25T11:26:42.707Z,112992.00
2018-07-25T11:27:42.705Z,138560.00
2018-07-25T11:28:42.722Z,122144.00
2018-07-25T11:29:42.729Z,104160.00
2018-07-25T11:30:42.682Z,114560.00
2018-07-25T11:31:42.670Z,114144.00
2018-07-25T11:32:42.679Z,120128.00
2018-07-25T11:33:42.678Z,119808.00
2018-07-25T11:34:42.652Z,115744.00
2018-07-25T11:35:42.748Z,87840.00
2018-07-25T11:36:42.712Z,120064.00
2018-07-25T11:37:42.637Z,121472.00
2018-07-25T11:38:42.642Z,113856.00
2018-07-25T11:39:42.613Z,113504.00
2018-07-25T11:40:42.650Z,112608.00
2018-07-25T11:41:42.612Z,110080.00
2018-07-25T11:42:42.644Z,22240.00
2018-07-25T11:43:42.647Z,17876.00
2018-07-25T11:44:42.581Z,15244.00
2018-07-25T11:45:42.756Z,96384.00
2018-07-25T11:46:42.565Z,103744.00
2018-07-25T11:47:42.555Z,110528.00
2018-07-25T11:48:42.551Z,115840.00
2018-07-25T11:49:42.589Z,118144.00
2018-07-25T11:50:42.548Z,119168.00
2018-07-25T11:51:42.569Z,117920.00
2018-07-25T11:52:42.533Z,114336.00
2018-07-25T11:53:42.533Z,114336.00
2018-07-25T11:54:42.521Z,112864.00
2018-07-25T11:55:42.643Z,112096.00
2018-07-25T11:56:42.550Z,112544.00
2018-07-25T11:57:42.489Z,116160.00
2018-07-25T11:58:42.474Z,117568.00
2018-07-25T11:59:42.473Z,111264.00
2018-07-25T12:00:42.468Z,16180.00
2018-07-25T12:01:42.527Z,16176.00
2018-07-25T12:02:42.494Z,14568.00
2018-07-25T12:03:42.445Z,12856.00
2018-07-25T12:04:42.430Z,12056.00
2018-07-25T12:05:42.421Z,11628.00
2018-07-25T12:06:42.522Z,11308.00
2018-07-25T12:07:42.486Z,11596.00
2018-07-25T12:08:42.399Z,12060.00
2018-07-25T12:09:42.395Z,11936.00
2018-07-25T12:10:42.382Z,12512.00
2018-07-25T12:11:42.388Z,13016.00